Time;durP1;ratioP1;P1;durP2;ratioP2;P2;SDS_P1;SDS_P2;PMS_P1;PMS_P2;Temp;Humidity;BMP_temperature;BMP_pressure;BME280_temperature;BME280_humidity;BME280_pressure;Samples;Min_cycle;Max_cycle;Signal;HPM_P1;HPM_P2
2021/09/14 04:36:23;;;;;;;27.35;16.55;;;;;;;15.00;96.52;100509.94;5061521;28;21210;-61
2021/09/14 04:38:49;;;;;;;24.98;17.00;;;;;;;15.04;97.68;100513.19;5055245;28;20532;-62
2021/09/14 04:41:14;;;;;;;21.20;16.30;;;;;;;15.08;97.76;100510.00;5059703;28;20029;-61
2021/09/14 04:43:40;;;;;;;24.30;17.27;;;;;;;15.15;98.49;100516.47;5056753;28;20107;-62
2021/09/14 04:46:05;;;;;;;24.75;17.23;;;;;;;15.19;99.32;100511.59;5054842;28;20028;-63
2021/09/14 04:48:31;;;;;;;27.50;17.00;;;;;;;15.24;99.81;100518.22;5051824;28;20115;-62
2021/09/14 04:50:56;;;;;;;27.98;18.45;;;;;;;15.30;100.00;100519.44;5051210;28;20120;-62
2021/09/14 04:53:21;;;;;;;26.63;17.55;;;;;;;15.36;100.00;100525.09;5056673;28;20050;-62
2021/09/14 04:55:47;;;;;;;33.75;17.48;;;;;;;15.42;100.00;100523.59;5054416;28;20055;-63
2021/09/14 04:58:12;;;;;;;38.22;18.15;;;;;;;15.50;100.00;100529.91;5058943;28;20086;-63
2021/09/14 05:00:38;;;;;;;62.17;21.33;;;;;;;15.56;99.69;100537.38;5051805;28;20040;-62
2021/09/14 05:03:03;;;;;;;63.65;24.45;;;;;;;15.64;99.53;100537.41;5051581;28;20028;-63
2021/09/14 05:05:29;;;;;;;39.10;22.40;;;;;;;15.65;99.80;100524.72;5046211;28;20017;-62
2021/09/14 05:07:54;;;;;;;35.22;23.17;;;;;;;15.72;100.00;100523.94;5055862;28;20033;-63
2021/09/14 05:10:20;;;;;;;37.15;22.90;;;;;;;15.83;100.00;100530.88;5051567;28;20029;-62
2021/09/14 05:12:46;;;;;;;38.33;22.75;;;;;;;15.90;100.00;100529.25;5051913;28;20032;-62
2021/09/14 05:15:12;;;;;;;31.13;21.42;;;;;;;15.92;100.00;100534.50;5048925;28;20062;-62
2021/09/14 05:17:37;;;;;;;30.27;21.85;;;;;;;16.01;100.00;100528.06;5054472;28;20383;-63
2021/09/14 05:20:05;;;;;;;28.15;21.50;;;;;;;15.98;100.00;100523.84;5060498;28;20032;-62
2021/09/14 05:22:32;;;;;;;27.63;23.05;;;;;;;16.15;100.00;100536.41;5059445;28;20024;-63
2021/09/14 05:24:59;;;;;;;32.15;22.38;;;;;;;16.18;100.00;100529.84;5052364;28;20027;-62
2021/09/14 05:27:24;;;;;;;46.22;23.63;;;;;;;16.28;100.00;100535.94;5063280;28;20136;-63
2021/09/14 05:29:50;;;;;;;46.67;23.25;;;;;;;16.34;100.00;100536.13;5051523;28;20032;-63
2021/09/14 05:32:17;;;;;;;42.60;23.52;;;;;;;16.42;100.00;100538.00;5061722;28;20035;-62
2021/09/14 05:34:45;;;;;;;33.95;22.75;;;;;;;16.48;100.00;100540.06;5058014;28;20053;-62
2021/09/14 05:37:11;;;;;;;36.40;21.77;;;;;;;16.55;100.00;100536.53;5066423;28;20735;-62
2021/09/14 05:39:36;;;;;;;34.75;23.13;;;;;;;16.61;100.00;100527.72;5049553;28;20029;-62
2021/09/14 05:42:02;;;;;;;25.95;21.50;;;;;;;16.75;100.00;100539.75;5058193;28;20318;-63
2021/09/14 05:44:27;;;;;;;36.00;22.15;;;;;;;16.83;100.00;100537.88;5058335;28;20028;-63
2021/09/14 05:46:53;;;;;;;39.20;22.67;;;;;;;16.89;100.00;100530.94;5051758;28;20175;-62
2021/09/14 05:49:18;;;;;;;32.22;22.13;;;;;;;17.02;100.00;100526.72;5042862;28;20342;-63
2021/09/14 05:51:44;;;;;;;29.65;20.73;;;;;;;17.21;100.00;100528.22;5039599;28;20056;-63
2021/09/14 05:54:09;;;;;;;31.70;20.75;;;;;;;17.31;100.00;100520.72;5046741;28;20036;-63
2021/09/14 05:56:35;;;;;;;31.08;20.15;;;;;;;17.46;100.00;100529.88;5048090;28;20082;-62
2021/09/14 05:59:00;;;;;;;28.20;21.67;;;;;;;17.61;100.00;100534.41;5044920;28;20036;-62
2021/09/14 06:01:27;;;;;;;31.13;20.25;;;;;;;17.79;100.00;100531.47;5044590;28;20027;-62
2021/09/14 06:03:53;;;;;;;37.03;20.20;;;;;;;17.96;99.99;100522.25;5047149;28;20024;-62
2021/09/14 06:06:18;;;;;;;27.50;19.75;;;;;;;18.09;99.49;100523.34;5042419;28;20029;-62
2021/09/14 06:08:44;;;;;;;30.83;21.42;;;;;;;18.34;99.19;100532.19;5043656;28;20621;-62
2021/09/14 06:11:09;;;;;;;27.98;21.42;;;;;;;18.52;99.04;100529.25;5053446;28;20492;-62
2021/09/14 06:13:35;;;;;;;27.67;19.65;;;;;;;18.70;98.19;100530.63;5069519;28;20033;-62
2021/09/14 06:16:02;;;;;;;28.08;20.98;;;;;;;18.90;98.09;100534.56;5053786;28;20020;-62
2021/09/14 06:18:28;;;;;;;27.58;20.77;;;;;;;19.09;97.35;100520.44;5043989;28;20021;-62
2021/09/14 06:20:54;;;;;;;25.63;20.63;;;;;;;19.26;96.71;100519.31;5047816;28;20037;-62
2021/09/14 06:23:20;;;;;;;27.65;20.90;;;;;;;19.46;95.80;100509.56;5045893;28;20103;-62
2021/09/14 06:25:45;;;;;;;28.08;21.35;;;;;;;19.74;94.61;100534.25;5042402;28;20028;-62
2021/09/14 06:28:11;;;;;;;24.13;19.50;;;;;;;19.93;93.48;100526.31;5048299;28;20048;-62
2021/09/14 06:30:36;;;;;;;24.92;18.92;;;;;;;20.17;92.26;100526.06;5051051;28;20025;-62
2021/09/14 06:33:03;;;;;;;28.40;18.98;;;;;;;20.41;90.93;100533.00;5045918;28;20036;-63
2021/09/14 06:35:28;;;;;;;24.83;18.83;;;;;;;20.62;89.46;100527.59;5046473;28;20483;-63
2021/09/14 06:37:54;;;;;;;20.95;18.80;;;;;;;20.88;87.72;100537.91;5050720;28;20036;-61
2021/09/14 06:40:19;;;;;;;24.63;17.00;;;;;;;21.14;85.98;100535.44;5046342;28;20036;-62
2021/09/14 06:42:45;;;;;;;27.63;17.25;;;;;;;21.31;84.23;100523.22;5045650;28;20024;-62
2021/09/14 06:45:10;;;;;;;23.65;17.85;;;;;;;21.58;82.61;100528.66;5046431;28;20033;-62
2021/09/14 06:47:36;;;;;;;24.88;17.60;;;;;;;21.81;81.28;100531.13;5046319;28;20052;-62
2021/09/14 06:50:04;;;;;;;21.45;16.67;;;;;;;22.00;79.41;100523.06;5046894;28;20104;-62
2021/09/14 06:52:29;;;;;;;22.05;15.60;;;;;;;22.24;77.68;100535.31;5048792;28;20378;-63
2021/09/14 06:54:55;;;;;;;20.73;15.30;;;;;;;22.41;75.22;100524.88;5046979;28;20021;-63
2021/09/14 06:57:20;;;;;;;21.75;15.85;;;;;;;22.58;73.59;100520.72;5049779;28;20031;-63
2021/09/14 06:59:45;;;;;;;20.05;15.02;;;;;;;22.71;72.80;100527.09;5049240;28;20035;-63
2021/09/14 07:02:11;;;;;;;21.25;15.40;;;;;;;22.86;71.46;100524.97;5043776;28;20031;-63
2021/09/14 07:04:36;;;;;;;22.58;15.40;;;;;;;23.01;70.82;100517.44;5052992;28;20057;-63
2021/09/14 07:07:02;;;;;;;18.67;13.63;;;;;;;23.17;69.07;100527.97;5046704;28;20028;-63
2021/09/14 07:09:27;;;;;;;19.95;14.68;;;;;;;23.34;68.08;100520.19;5045685;28;20394;-63
2021/09/14 07:11:52;;;;;;;16.98;14.45;;;;;;;23.55;67.56;100520.81;5043380;28;20040;-63
2021/09/14 07:14:18;;;;;;;19.88;13.85;;;;;;;23.77;65.15;100529.59;5047004;28;20093;-62
2021/09/14 07:16:43;;;;;;;19.77;14.15;;;;;;;23.89;65.05;100525.16;5043316;28;20442;-63
2021/09/14 07:19:09;;;;;;;16.10;12.88;;;;;;;24.01;64.42;100527.03;5044346;28;20044;-62
2021/09/14 07:21:34;;;;;;;14.52;12.85;;;;;;;24.14;63.58;100529.72;5043319;28;20033;-63
2021/09/14 07:24:00;;;;;;;14.43;11.88;;;;;;;24.29;63.32;100522.06;5043457;28;20021;-63
2021/09/14 07:26:25;;;;;;;17.13;12.70;;;;;;;24.39;63.43;100516.94;5045762;28;20274;-63
2021/09/14 07:28:51;;;;;;;14.25;12.10;;;;;;;24.60;62.80;100521.22;5043736;28;20513;-63
2021/09/14 07:31:16;;;;;;;16.75;12.63;;;;;;;24.82;62.10;100530.00;5045847;28;20171;-63
2021/09/14 07:33:42;;;;;;;15.27;12.52;;;;;;;24.96;60.75;100532.44;5042418;28;20087;-63
2021/09/14 07:36:10;;;;;;;14.70;10.82;;;;;;;25.03;59.74;100511.28;5047004;28;20040;-63
2021/09/14 07:38:39;;;;;;;14.27;10.52;;;;;;;25.17;58.96;100506.50;5048844;28;20040;-70
2021/09/14 07:41:04;;;;;;;18.95;11.50;;;;;;;25.34;58.71;100513.97;5049617;28;20035;-69
2021/09/14 07:43:30;;;;;;;16.33;10.50;;;;;;;25.51;57.93;100520.59;5041626;28;20033;-70
2021/09/14 07:45:56;;;;;;;16.27;12.05;;;;;;;25.67;57.51;100516.41;5039455;28;20123;-69
2021/09/14 07:48:21;;;;;;;22.40;11.70;;;;;;;25.86;57.19;100513.41;5039452;28;20043;-69
2021/09/14 07:50:47;;;;;;;15.02;10.75;;;;;;;26.12;56.52;100526.88;5038474;28;20021;-69
2021/09/14 07:53:13;;;;;;;20.20;11.13;;;;;;;26.42;55.36;100518.69;5045241;28;20033;-69
2021/09/14 07:55:38;;;;;;;12.95;10.10;;;;;;;26.87;54.20;100522.72;5059827;28;20017;-69
2021/09/14 07:58:04;;;;;;;16.33;9.65;;;;;;;27.43;52.05;100513.94;5047525;28;20108;-69
2021/09/14 08:00:29;;;;;;;16.23;9.70;;;;;;;27.97;50.54;100510.81;5046827;28;20033;-69
2021/09/14 08:02:56;;;;;;;13.80;9.70;;;;;;;28.66;49.05;100513.38;5041619;28;20040;-69
2021/09/14 08:05:23;;;;;;;13.40;9.70;;;;;;;29.16;46.57;100511.56;5043076;28;20437;-69
2021/09/14 08:07:48;;;;;;;16.55;9.15;;;;;;;29.84;45.41;100514.00;5047723;28;20033;-69
2021/09/14 08:10:14;;;;;;;9.43;8.48;;;;;;;30.56;43.69;100504.44;5030932;28;20029;-69
2021/09/14 08:12:39;;;;;;;12.57;9.15;;;;;;;31.51;41.46;100508.13;5035028;28;20093;-69
2021/09/14 08:15:06;;;;;;;11.50;9.00;;;;;;;32.20;39.83;100494.94;5039069;28;20029;-69
2021/09/14 08:17:31;;;;;;;10.93;8.52;;;;;;;32.80;38.15;100499.84;5041565;28;20093;-69
2021/09/14 08:19:56;;;;;;;12.35;8.60;;;;;;;33.15;37.58;100502.69;5039833;28;20033;-70
2021/09/14 08:22:23;;;;;;;11.30;9.75;;;;;;;33.41;37.10;100508.03;5036981;28;20029;-70
2021/09/14 08:24:49;;;;;;;11.93;8.63;;;;;;;33.67;36.73;100487.38;5040040;28;20036;-69
2021/09/14 08:27:14;;;;;;;13.30;9.10;;;;;;;34.04;35.67;100487.00;5045577;28;20040;-70
2021/09/14 08:29:40;;;;;;;10.30;8.60;;;;;;;34.43;35.04;100490.78;5041642;28;20032;-70
2021/09/14 08:32:06;;;;;;;10.93;8.30;;;;;;;34.70;34.09;100493.94;5039452;28;20491;-70
2021/09/14 08:34:31;;;;;;;12.80;8.25;;;;;;;34.77;33.95;100497.25;5038004;28;20040;-70
2021/09/14 08:36:57;;;;;;;11.38;8.68;;;;;;;34.83;34.07;100492.47;5040077;28;20040;-69
2021/09/14 08:39:22;;;;;;;11.95;8.50;;;;;;;34.99;34.17;100492.09;5038466;28;20115;-69
2021/09/14 08:41:49;;;;;;;13.07;9.82;;;;;;;35.14;33.44;100491.16;5035521;28;20028;-69
2021/09/14 08:44:15;;;;;;;12.15;9.30;;;;;;;35.43;33.48;100489.25;5037538;28;20029;-70
2021/09/14 08:46:42;;;;;;;10.63;9.07;;;;;;;35.70;32.84;100487.56;5036956;28;20079;-70
2021/09/14 08:49:10;;;;;;;16.35;8.48;;;;;;;35.88;32.27;100492.41;5040168;28;20057;-70
2021/09/14 08:51:36;;;;;;;10.45;7.65;;;;;;;36.12;31.42;100492.41;5040924;28;20486;-69
2021/09/14 08:54:02;;;;;;;12.23;8.35;;;;;;;36.27;31.62;100490.25;5049976;28;20043;-70
2021/09/14 08:56:27;;;;;;;9.35;8.15;;;;;;;36.40;31.35;100494.31;5040045;28;20028;-70
2021/09/14 08:59:01;;;;;;;13.50;8.02;;;;;;;36.41;30.88;100493.16;5039070;28;20033;-69
2021/09/14 09:01:27;;;;;;;12.88;8.20;;;;;;;36.20;31.66;100492.56;5046411;28;20039;-69
2021/09/14 09:04:00;;;;;;;11.68;8.45;;;;;;;35.96;31.74;100486.19;5044933;28;20025;-70
2021/09/14 09:06:35;;;;;;;8.57;7.72;;;;;;;35.65;32.02;100495.97;5043408;28;20024;-70
2021/09/14 09:09:15;;;;;;;10.43;7.63;;;;;;;35.43;32.56;100487.25;5048783;28;20047;-70
2021/09/14 09:11:56;;;;;;;14.68;8.00;;;;;;;34.87;33.36;100488.84;5067086;28;20429;-70
2021/09/14 09:14:44;;;;;;;13.25;8.27;;;;;;;34.33;34.04;100493.56;5049955;28;20025;-69
2021/09/14 09:17:13;;;;;;;10.50;8.02;;;;;;;33.88;34.82;100499.34;5045350;28;20033;-70
2021/09/14 09:20:06;;;;;;;12.00;7.35;;;;;;;33.35;35.24;100499.91;5051717;28;20432;-70
2021/09/14 09:22:31;;;;;;;10.48;7.05;;;;;;;32.85;36.01;100499.91;5046594;28;20474;-70
2021/09/14 09:24:57;;;;;;;8.85;7.20;;;;;;;32.41;36.53;100505.88;5049044;28;20044;-69
2021/09/14 09:27:25;;;;;;;8.05;6.90;;;;;;;32.02;37.24;100504.56;5047906;28;20025;-69
2021/09/14 09:30:06;;;;;;;8.18;7.28;;;;;;;31.72;37.84;100503.56;5050563;28;20358;-70
2021/09/14 09:32:49;;;;;;;7.57;6.75;;;;;;;31.42;38.37;100504.19;5048648;28;20571;-69
2021/09/14 09:35:27;;;;;;;8.85;7.38;;;;;;;31.08;38.39;100496.41;5044390;28;20040;-71
2021/09/14 09:37:54;;;;;;;7.25;6.55;;;;;;;30.97;39.20;100503.78;5049325;28;20082;-69
2021/09/14 09:40:32;;;;;;;12.27;7.35;;;;;;;30.87;38.82;100500.91;5041104;28;20041;-70
2021/09/14 09:43:07;;;;;;;7.70;6.20;;;;;;;30.65;39.56;100490.97;5046429;28;20100;-70
2021/09/14 09:45:43;;;;;;;9.55;6.78;;;;;;;30.50;39.76;100491.66;5046244;28;20103;-70
2021/09/14 09:48:11;;;;;;;11.35;7.18;;;;;;;30.42;40.10;100498.47;5041509;28;20105;-70
2021/09/14 09:50:37;;;;;;;8.30;6.90;;;;;;;30.32;40.52;100497.53;5042435;28;20479;-70
2021/09/14 09:53:05;;;;;;;7.78;6.97;;;;;;;30.21;40.76;100507.63;5067735;28;20066;-69
2021/09/14 09:55:32;;;;;;;10.60;7.35;;;;;;;30.04;40.56;100494.91;5050343;28;20049;-69
2021/09/14 09:57:59;;;;;;;10.43;6.93;;;;;;;29.96;41.15;100514.75;5049016;28;20043;-68
2021/09/14 10:00:25;;;;;;;7.97;7.05;;;;;;;29.93;40.88;100510.56;5043803;28;20087;-68
2021/09/14 10:03:01;;;;;;;7.53;6.70;;;;;;;29.85;40.99;100512.91;5045405;28;20036;-68
2021/09/14 10:05:30;;;;;;;11.40;6.53;;;;;;;29.70;41.54;100496.13;5047859;28;20172;-69
2021/09/14 10:08:01;;;;;;;7.30;6.60;;;;;;;29.65;41.06;100504.31;5045807;28;20154;-62
2021/09/14 10:10:35;;;;;;;10.43;7.13;;;;;;;29.58;41.30;100506.41;5048243;28;20041;-63
2021/09/14 10:13:05;;;;;;;8.75;6.93;;;;;;;29.54;41.83;100496.94;5044103;28;20031;-63
2021/09/14 10:15:44;;;;;;;8.85;7.18;;;;;;;29.44;41.75;100499.56;5047556;28;20036;-62
2021/09/14 10:18:11;;;;;;;13.13;7.38;;;;;;;29.40;41.50;100504.75;5053130;28;20037;-63
2021/09/14 10:20:46;;;;;;;8.57;6.57;;;;;;;29.33;41.51;100492.19;5043858;28;20057;-69
2021/09/14 10:23:21;;;;;;;7.88;6.72;;;;;;;29.31;41.58;100510.97;5050836;28;20032;-69
2021/09/14 10:25:51;;;;;;;10.13;6.45;;;;;;;29.25;41.58;100499.00;5046017;28;20021;-69
2021/09/14 10:28:20;;;;;;;7.63;6.82;;;;;;;29.17;41.50;100495.81;5045638;28;20025;-69
2021/09/14 10:30:48;;;;;;;9.50;6.63;;;;;;;29.09;41.89;100490.69;5047092;28;20108;-69
2021/09/14 10:33:22;;;;;;;12.50;7.05;;;;;;;28.93;41.60;100481.28;5042057;28;20045;-69
2021/09/14 10:35:47;;;;;;;;;;;;;;;28.91;41.10;100493.66;5041837;28;20499;-68
2021/09/14 10:38:14;;;;;;;6.95;6.30;;;;;;;28.94;41.33;100493.16;5042489;28;19917;-69
2021/09/14 10:40:46;;;;;;;8.57;6.43;;;;;;;28.89;41.37;100493.09;5045541;28;20068;-69
2021/09/14 10:43:32;;;;;;;9.00;6.38;;;;;;;28.83;41.93;100488.56;5042370;28;20021;-69
2021/09/14 10:45:59;;;;;;;11.20;6.50;;;;;;;28.76;41.75;100488.72;5042946;28;20028;-69
2021/09/14 10:48:31;;;;;;;10.77;6.68;;;;;;;28.72;41.97;100483.94;5047519;28;20097;-68
2021/09/14 10:51:16;;;;;;;6.60;6.00;;;;;;;28.68;42.40;100480.84;5044033;28;20043;-68
2021/09/14 10:53:52;;;;;;;7.50;6.35;;;;;;;28.68;42.26;100480.84;5040059;28;20044;-68
2021/09/14 10:56:18;;;;;;;12.23;6.95;;;;;;;28.65;42.52;100483.25;5044886;28;20251;-69
2021/09/14 10:58:44;;;;;;;8.95;7.45;;;;;;;28.61;42.50;100482.91;5044030;28;20021;-69
2021/09/14 11:01:22;;;;;;;10.20;6.47;;;;;;;28.59;42.46;100479.56;5040929;28;20036;-69
2021/09/14 11:04:07;;;;;;;8.57;6.85;;;;;;;28.48;41.92;100459.22;5044871;28;20047;-69
2021/09/14 11:06:33;;;;;;;10.07;7.28;;;;;;;28.52;42.32;100467.84;5043964;28;20104;-69
2021/09/14 11:09:06;;;;;;;8.93;6.50;;;;;;;28.48;42.49;100467.50;5045312;28;20431;-69
2021/09/14 11:11:32;;;;;;;9.93;7.20;;;;;;;28.46;42.52;100472.44;5043453;28;20086;-69
2021/09/14 11:13:57;;;;;;;10.90;6.35;;;;;;;28.42;43.00;100479.50;5043201;28;20079;-69
2021/09/14 11:16:23;;;;;;;11.38;6.68;;;;;;;28.37;42.84;100470.25;5042800;28;20538;-69
2021/09/14 11:18:50;;;;;;;7.80;6.53;;;;;;;28.37;42.95;100468.34;5044745;28;20082;-69
2021/09/14 11:21:17;;;;;;;8.27;6.63;;;;;;;28.37;43.21;100462.81;5041061;28;20039;-69
2021/09/14 11:23:47;;;;;;;7.90;6.47;;;;;;;28.41;42.53;100468.72;5046343;28;20028;-69
2021/09/14 11:26:14;;;;;;;9.65;6.57;;;;;;;28.36;42.46;100466.69;5046340;28;20040;-69
2021/09/14 11:28:42;;;;;;;10.35;7.35;;;;;;;28.39;42.59;100466.19;5044565;28;20016;-69
2021/09/14 11:31:11;;;;;;;6.68;5.90;;;;;;;28.37;42.22;100457.31;5038894;28;20470;-69
2021/09/14 11:33:41;;;;;;;7.53;6.65;;;;;;;28.39;42.40;100465.34;5039211;28;20021;-69
2021/09/14 11:36:08;;;;;;;7.63;6.82;;;;;;;28.37;43.01;100462.81;5036964;28;20135;-69
2021/09/14 11:38:34;;;;;;;8.45;6.68;;;;;;;28.27;42.97;100448.84;5034870;28;20529;-69
2021/09/14 11:41:01;;;;;;;9.48;7.03;;;;;;;28.34;42.94;100465.25;5045028;28;20037;-69
2021/09/14 11:43:34;;;;;;;6.82;6.18;;;;;;;28.30;42.38;100450.25;5049694;28;20021;-69
2021/09/14 11:46:11;;;;;;;7.20;5.78;;;;;;;28.35;41.29;100451.22;5043276;28;20115;-69
2021/09/14 11:48:37;;;;;;;6.03;5.53;;;;;;;28.35;41.26;100447.63;5040606;28;20029;-69
2021/09/14 11:51:08;;;;;;;8.35;5.93;;;;;;;28.37;41.76;100453.69;5040942;28;20437;-69
2021/09/14 11:53:34;;;;;;;8.93;6.93;;;;;;;28.30;42.40;100440.06;5049965;28;20025;-69
2021/09/14 11:56:09;;;;;;;6.53;5.93;;;;;;;28.37;41.26;100451.78;5042516;28;20382;-69
2021/09/14 11:58:35;;;;;;;7.45;6.50;;;;;;;28.34;42.02;100448.72;5038364;28;20037;-69
2021/09/14 12:01:07;;;;;;;8.68;5.93;;;;;;;28.28;42.35;100439.47;5043904;28;20462;-69
2021/09/14 12:03:48;;;;;;;7.53;5.78;;;;;;;28.29;42.03;100446.69;5044346;28;20028;-69
2021/09/14 12:06:30;;;;;;;8.25;6.30;;;;;;;28.31;42.20;100449.19;5049037;28;20450;-69
2021/09/14 12:09:01;;;;;;;7.57;6.50;;;;;;;28.33;42.16;100439.56;5048906;28;20021;-69
2021/09/14 12:11:29;;;;;;;10.10;6.45;;;;;;;28.32;41.76;100440.69;5043225;28;20034;-70
2021/09/14 12:13:57;;;;;;;6.57;5.97;;;;;;;28.37;41.84;100439.91;5042997;28;20036;-70
2021/09/14 12:16:32;;;;;;;7.72;6.22;;;;;;;28.36;41.89;100439.09;5040922;28;20120;-70
2021/09/14 12:19:01;;;;;;;6.78;5.47;;;;;;;28.33;41.52;100431.31;5045300;28;20431;-69
2021/09/14 12:21:27;;;;;;;9.90;5.60;;;;;;;28.29;40.83;100424.59;5040744;28;20044;-69
2021/09/14 12:23:54;;;;;;;7.03;5.00;;;;;;;28.38;40.39;100439.66;5037123;28;20102;-69
2021/09/14 12:26:26;;;;;;;5.47;4.90;;;;;;;28.40;40.22;100434.75;5033125;28;20044;-70
2021/09/14 12:28:54;;;;;;;9.63;5.43;;;;;;;28.41;39.77;100441.09;5040975;28;20079;-69
2021/09/14 12:31:20;;;;;;;8.73;5.30;;;;;;;28.43;40.13;100431.50;5042071;28;20030;-69
2021/09/14 12:33:46;;;;;;;5.97;4.75;;;;;;;28.44;39.69;100437.84;5040171;28;20029;-69
2021/09/14 12:36:12;;;;;;;5.15;4.65;;;;;;;28.37;39.74;100417.81;5037412;28;20137;-69
2021/09/14 12:38:38;;;;;;;6.20;4.72;;;;;;;28.40;39.59;100431.97;5035503;28;20064;-69
2021/09/14 12:41:05;;;;;;;17.80;5.88;;;;;;;28.35;39.68;100418.09;5038595;28;20041;-70
2021/09/14 12:43:30;;;;;;;7.35;5.70;;;;;;;28.38;39.55;100431.38;5040057;28;20029;-69
2021/09/14 12:45:56;;;;;;;5.45;4.95;;;;;;;28.40;39.72;100420.09;5042273;28;20029;-63
2021/09/14 12:48:22;;;;;;;5.95;5.35;;;;;;;28.38;39.96;100428.63;5036597;28;20040;-62
2021/09/14 12:50:47;;;;;;;5.30;4.80;;;;;;;28.45;39.68;100428.50;5035438;28;20475;-63
2021/09/14 12:53:13;;;;;;;7.95;5.60;;;;;;;28.46;39.13;100416.38;5042314;28;20094;-63
2021/09/14 12:55:38;;;;;;;6.03;4.57;;;;;;;28.40;39.06;100414.56;5035263;28;20033;-63
2021/09/14 12:58:06;;;;;;;6.85;5.30;;;;;;;28.34;39.47;100402.59;5040963;28;20045;-63
2021/09/14 13:00:32;;;;;;;8.35;5.07;;;;;;;28.38;39.64;100401.03;5039338;28;20025;-63
2021/09/14 13:02:59;;;;;;;6.50;4.90;;;;;;;28.31;40.11;100397.59;5037575;28;20032;-63
2021/09/14 13:05:29;;;;;;;5.60;5.10;;;;;;;28.40;40.40;100411.81;5040537;28;20029;-63
2021/09/14 13:07:55;;;;;;;8.23;5.63;;;;;;;28.29;40.01;100397.03;5036818;28;20453;-63
2021/09/14 13:10:21;;;;;;;6.07;5.32;;;;;;;28.22;39.78;100378.94;5043743;28;20381;-63
2021/09/14 13:12:48;;;;;;;10.63;5.60;;;;;;;28.29;40.28;100385.97;5045630;28;20033;-63
2021/09/14 13:17:59;;;;;;;7.07;4.95;;;;;;;28.28;40.24;100394.50;5038760;28;20171;-63
2021/09/14 13:20:25;;;;;;;7.97;5.45;;;;;;;28.39;39.96;100397.19;5035831;28;20144;-63
2021/09/14 13:22:51;;;;;;;8.25;5.60;;;;;;;28.38;39.96;100395.50;5035540;28;20982;-63
2021/09/14 13:25:16;;;;;;;6.43;5.15;;;;;;;28.31;39.91;100388.50;5036527;28;20021;-63
2021/09/14 13:27:42;;;;;;;7.50;5.07;;;;;;;28.33;40.31;100387.16;5037715;28;20063;-70
2021/09/14 13:30:08;;;;;;;9.73;5.93;;;;;;;28.32;40.45;100392.91;5046035;28;20040;-69
2021/09/14 13:32:33;;;;;;;5.88;4.85;;;;;;;28.32;40.60;100393.75;5043428;28;20462;-69
2021/09/14 13:34:59;;;;;;;6.90;4.97;;;;;;;28.32;40.70;100391.00;5043589;28;20049;-70
2021/09/14 13:37:24;;;;;;;10.73;5.85;;;;;;;28.32;40.09;100387.41;5047465;28;20478;-70
2021/09/14 13:39:51;;;;;;;5.95;5.28;;;;;;;28.37;39.77;100388.31;5057072;28;20021;-69
2021/09/14 13:42:23;;;;;;;10.23;6.13;;;;;;;28.30;40.01;100379.38;5043409;28;20491;-70
2021/09/14 13:47:20;;;;;;;5.70;5.20;;;;;;;28.39;40.40;100394.44;5045756;28;20456;-70
2021/09/14 13:49:46;;;;;;;11.90;5.43;;;;;;;28.39;40.01;100386.16;5046970;28;20033;-70
2021/09/14 13:52:12;;;;;;;5.90;5.30;;;;;;;28.39;40.17;100391.69;5049065;28;20045;-69
2021/09/14 13:54:37;;;;;;;6.43;5.50;;;;;;;28.38;40.18;100378.94;5033507;28;20029;-69
2021/09/14 13:57:03;;;;;;;5.32;4.82;;;;;;;28.42;40.08;100393.94;5038083;28;20049;-69
2021/09/14 13:59:28;;;;;;;6.05;5.47;;;;;;;28.42;39.90;100387.56;5039545;28;20502;-69
2021/09/14 14:01:54;;;;;;;9.32;4.82;;;;;;;28.42;40.06;100387.56;5042719;28;20039;-69
2021/09/14 14:04:21;;;;;;;7.10;5.13;;;;;;;28.40;40.21;100387.81;5043712;28;20029;-68
2021/09/14 14:06:47;;;;;;;5.82;5.10;;;;;;;28.46;40.36;100389.63;5051676;28;20020;-69
2021/09/14 14:09:12;;;;;;;8.85;5.22;;;;;;;28.49;40.50;100396.56;5048038;28;20067;-69
2021/09/14 14:11:38;;;;;;;8.20;5.68;;;;;;;28.48;40.16;100387.47;5051808;28;20064;-69
2021/09/14 14:14:05;;;;;;;6.72;5.38;;;;;;;28.53;40.11;100387.53;5061535;28;20079;-69
2021/09/14 14:16:31;;;;;;;7.30;5.57;;;;;;;28.49;40.29;100368.97;5047860;28;20095;-69
2021/09/14 14:18:56;;;;;;;9.52;5.20;;;;;;;28.61;40.11;100382.69;5053372;28;20325;-69
2021/09/14 14:21:23;;;;;;;6.03;5.43;;;;;;;28.60;39.52;100381.88;5042410;28;20082;-69
2021/09/14 14:23:48;;;;;;;15.40;5.13;;;;;;;28.64;39.20;100380.28;5043473;28;20021;-69
2021/09/14 14:26:14;;;;;;;8.35;5.28;;;;;;;28.67;39.11;100382.53;5046647;28;20147;-69
2021/09/14 14:28:39;;;;;;;7.05;5.10;;;;;;;28.73;38.44;100375.16;5047991;28;20035;-69
2021/09/14 14:31:05;;;;;;;7.78;5.35;;;;;;;28.73;38.88;100372.41;5044908;28;20036;-70
2021/09/14 14:33:30;;;;;;;7.28;5.43;;;;;;;28.61;38.98;100360.59;5049792;28;20025;-71
2021/09/14 14:35:56;;;;;;;8.18;5.25;;;;;;;28.66;39.32;100369.78;5044009;28;20095;-70
2021/09/14 14:38:21;;;;;;;6.88;4.53;;;;;;;28.70;39.13;100372.91;5044518;28;21202;-70
2021/09/14 14:40:47;;;;;;;6.38;5.13;;;;;;;28.59;39.26;100371.91;5041534;28;20467;-71
2021/09/14 14:43:13;;;;;;;8.98;5.53;;;;;;;28.57;38.75;100362.19;5039119;28;20024;-71
2021/09/14 14:45:39;;;;;;;7.85;5.53;;;;;;;28.68;38.80;100380.59;5041511;28;20514;-71
2021/09/14 14:48:08;;;;;;;12.18;5.53;;;;;;;28.60;38.96;100386.53;5046489;28;20100;-71
2021/09/14 14:50:34;;;;;;;8.60;4.93;;;;;;;28.51;39.04;100370.38;5053861;28;20269;-71
2021/09/14 14:52:59;;;;;;;6.35;4.88;;;;;;;28.57;38.63;100387.03;5041539;28;20038;-70
2021/09/14 14:55:24;;;;;;;5.78;4.88;;;;;;;28.49;38.96;100367.03;5043566;28;20299;-70
2021/09/14 14:57:50;;;;;;;6.57;4.72;;;;;;;28.53;39.01;100381.16;5042932;28;20036;-69
2021/09/14 15:00:15;;;;;;;9.88;5.53;;;;;;;28.57;38.47;100373.25;5042867;28;20039;-70
2021/09/14 15:02:41;;;;;;;8.85;5.13;;;;;;;28.54;38.64;100378.16;5042615;28;20025;-71
2021/09/14 15:05:08;;;;;;;5.50;5.00;;;;;;;28.52;39.02;100379.50;5044749;28;20048;-71
2021/09/14 15:07:33;;;;;;;6.32;4.95;;;;;;;28.49;39.17;100374.47;5040547;28;20029;-71
2021/09/14 15:09:59;;;;;;;8.40;4.85;;;;;;;28.37;39.18;100355.19;5042942;28;20032;-71
2021/09/14 15:12:25;;;;;;;5.70;4.97;;;;;;;28.38;38.77;100365.16;5044320;28;20052;-71
2021/09/14 15:14:50;;;;;;;7.00;5.18;;;;;;;28.44;38.77;100374.38;5055299;28;20079;-69
2021/09/14 15:17:15;;;;;;;6.25;4.82;;;;;;;28.40;39.04;100375.94;5046269;28;20059;-71
2021/09/14 15:19:42;;;;;;;7.43;5.07;;;;;;;28.31;39.49;100358.13;5056733;28;20020;-71
2021/09/14 15:22:08;;;;;;;7.93;5.07;;;;;;;28.35;39.28;100360.16;5046520;28;20060;-71
2021/09/14 15:24:35;;;;;;;6.43;4.63;;;;;;;28.41;39.78;100377.63;5046436;28;20048;-71
2021/09/14 15:27:00;;;;;;;6.82;5.30;;;;;;;28.29;39.74;100361.16;5043011;28;20040;-71
2021/09/14 15:29:26;;;;;;;6.07;5.30;;;;;;;28.35;40.04;100376.72;5050753;28;20504;-70
2021/09/14 15:31:51;;;;;;;9.38;5.10;;;;;;;28.32;40.09;100374.44;5050438;28;20020;-69
2021/09/14 15:34:17;;;;;;;10.93;5.82;;;;;;;28.28;40.20;100372.44;5045723;28;20030;-68
2021/09/14 15:36:42;;;;;;;14.60;5.85;;;;;;;28.29;40.17;100368.56;5043516;28;20111;-69
2021/09/14 15:39:08;;;;;;;13.95;5.97;;;;;;;28.26;40.21;100369.91;5044412;28;20036;-69
2021/09/14 15:41:33;;;;;;;11.57;5.30;;;;;;;28.22;40.72;100368.75;5043001;28;20074;-70
2021/09/14 15:43:59;;;;;;;8.40;5.43;;;;;;;28.13;40.55;100355.59;5044657;28;20086;-70
2021/09/14 15:46:25;;;;;;;13.75;6.30;;;;;;;28.12;40.45;100356.69;5044420;28;20075;-70
2021/09/14 15:48:51;;;;;;;10.73;5.50;;;;;;;28.11;40.38;100366.03;5046558;28;20025;-70
2021/09/14 15:51:16;;;;;;;10.00;5.80;;;;;;;28.15;40.65;100373.56;5042188;28;20072;-70
2021/09/14 15:53:42;;;;;;;15.13;6.60;;;;;;;28.07;40.70;100370.38;5045121;28;20082;-71
2021/09/14 15:56:11;;;;;;;10.35;6.18;;;;;;;28.00;41.06;100369.69;5044281;28;20071;-70
2021/09/14 15:58:38;;;;;;;14.35;6.13;;;;;;;27.93;41.14;100369.84;5047612;28;20031;-70